sensor_id;sensor_type;location;lat;lon;timestamp;temperature;humidity
10046;DHT22;5063;50.878;4.742;2022-09-09T00:05:28;14.10;99.90
10046;DHT22;5063;50.878;4.742;2022-09-09T00:15:25;14.00;99.90
10046;DHT22;5063;50.878;4.742;2022-09-09T00:17:53;14.00;99.90
10046;DHT22;5063;50.878;4.742;2022-09-09T00:21:16;14.00;99.90
10046;DHT22;5063;50.878;4.742;2022-09-09T00:23:30;13.90;99.90
10046;DHT22;5063;50.878;4.742;2022-09-09T00:28:26;13.90;99.90
10046;DHT22;5063;50.878;4.742;2022-09-09T00:30:52;13.90;99.90
10046;DHT22;5063;50.878;4.742;2022-09-09T00:33:23;14.00;99.90
10046;DHT22;5063;50.878;4.742;2022-09-09T00:35:57;14.00;99.90
10046;DHT22;5063;50.878;4.742;2022-09-09T00:38:33;14.00;99.90
10046;DHT22;5063;50.878;4.742;2022-09-09T00:49:54;14.00;99.90
10046;DHT22;5063;50.878;4.742;2022-09-09T00:55:52;14.00;99.90
10046;DHT22;5063;50.878;4.742;2022-09-09T00:58:19;14.00;99.90
10046;DHT22;5063;50.878;4.742;2022-09-09T01:00:50;14.00;99.90
10046;DHT22;5063;50.878;4.742;2022-09-09T01:03:35;14.10;99.90
10046;DHT22;5063;50.878;4.742;2022-09-09T01:06:12;14.20;99.90
10046;DHT22;5063;50.878;4.742;2022-09-09T01:11:55;14.20;99.90
10046;DHT22;5063;50.878;4.742;2022-09-09T01:16:58;14.30;99.90
10046;DHT22;5063;50.878;4.742;2022-09-09T01:27:20;14.10;99.90
10046;DHT22;5063;50.878;4.742;2022-09-09T01:29:47;14.10;99.90
10046;DHT22;5063;50.878;4.742;2022-09-09T01:35:11;14.10;99.90
10046;DHT22;5063;50.878;4.742;2022-09-09T01:37:38;14.10;99.90
10046;DHT22;5063;50.878;4.742;2022-09-09T01:40:04;14.10;99.90
10046;DHT22;5063;50.878;4.742;2022-09-09T01:42:30;14.10;99.90
10046;DHT22;5063;50.878;4.742;2022-09-09T01:44:56;14.10;99.90
10046;DHT22;5063;50.878;4.742;2022-09-09T01:47:21;14.20;99.90
10046;DHT22;5063;50.878;4.742;2022-09-09T01:49:48;14.10;99.90
10046;DHT22;5063;50.878;4.742;2022-09-09T01:52:13;14.10;99.90
10046;DHT22;5063;50.878;4.742;2022-09-09T01:54:39;14.10;99.90
10046;DHT22;5063;50.878;4.742;2022-09-09T02:00:06;14.10;99.90
10046;DHT22;5063;50.878;4.742;2022-09-09T02:05:39;14.10;99.90
10046;DHT22;5063;50.878;4.742;2022-09-09T02:08:15;14.20;99.90
10046;DHT22;5063;50.878;4.742;2022-09-09T02:10:55;14.30;99.90
10046;DHT22;5063;50.878;4.742;2022-09-09T02:13:22;14.40;99.90
10046;DHT22;5063;50.878;4.742;2022-09-09T02:21:16;14.30;99.90
10046;DHT22;5063;50.878;4.742;2022-09-09T02:23:43;14.40;99.90
10046;DHT22;5063;50.878;4.742;2022-09-09T02:26:13;14.30;99.90
10046;DHT22;5063;50.878;4.742;2022-09-09T02:28:46;14.30;99.90
10046;DHT22;5063;50.878;4.742;2022-09-09T02:31:14;14.30;99.90
10046;DHT22;5063;50.878;4.742;2022-09-09T02:33:45;14.30;99.90
10046;DHT22;5063;50.878;4.742;2022-09-09T02:36:14;14.30;99.90
10046;DHT22;5063;50.878;4.742;2022-09-09T02:38:47;14.40;99.90
10046;DHT22;5063;50.878;4.742;2022-09-09T02:41:30;14.30;99.90
10046;DHT22;5063;50.878;4.742;2022-09-09T02:43:57;14.30;99.90
10046;DHT22;5063;50.878;4.742;2022-09-09T02:49:27;14.30;99.90
10046;DHT22;5063;50.878;4.742;2022-09-09T02:52:01;14.40;99.90
10046;DHT22;5063;50.878;4.742;2022-09-09T02:54:32;14.40;99.90
10046;DHT22;5063;50.878;4.742;2022-09-09T02:57:06;14.30;99.90
10046;DHT22;5063;50.878;4.742;2022-09-09T02:59:34;14.30;99.90
10046;DHT22;5063;50.878;4.742;2022-09-09T03:02:00;14.20;99.90
10046;DHT22;5063;50.878;4.742;2022-09-09T03:04:26;14.20;99.90
10046;DHT22;5063;50.878;4.742;2022-09-09T03:06:52;14.20;99.90
10046;DHT22;5063;50.878;4.742;2022-09-09T03:09:18;14.30;99.90
10046;DHT22;5063;50.878;4.742;2022-09-09T03:11:43;14.30;99.90
10046;DHT22;5063;50.878;4.742;2022-09-09T03:14:09;14.30;99.90
10046;DHT22;5063;50.878;4.742;2022-09-09T03:16:36;14.30;99.90
10046;DHT22;5063;50.878;4.742;2022-09-09T03:19:02;14.30;99.90
10046;DHT22;5063;50.878;4.742;2022-09-09T03:21:28;14.30;99.90
10046;DHT22;5063;50.878;4.742;2022-09-09T03:23:54;14.20;99.90
10046;DHT22;5063;50.878;4.742;2022-09-09T03:26:21;14.30;99.90
10046;DHT22;5063;50.878;4.742;2022-09-09T03:28:46;14.30;99.90
10046;DHT22;5063;50.878;4.742;2022-09-09T03:31:12;14.30;99.90
10046;DHT22;5063;50.878;4.742;2022-09-09T03:33:38;14.30;99.90
10046;DHT22;5063;50.878;4.742;2022-09-09T03:36:05;14.30;99.90
10046;DHT22;5063;50.878;4.742;2022-09-09T03:38:31;14.30;99.90
10046;DHT22;5063;50.878;4.742;2022-09-09T03:40:57;14.30;99.90
10046;DHT22;5063;50.878;4.742;2022-09-09T03:43:25;14.30;99.90
10046;DHT22;5063;50.878;4.742;2022-09-09T03:45:51;14.40;99.90
10046;DHT22;5063;50.878;4.742;2022-09-09T03:48:17;14.40;99.90
10046;DHT22;5063;50.878;4.742;2022-09-09T03:50:48;14.40;99.90
10046;DHT22;5063;50.878;4.742;2022-09-09T03:53:15;14.40;99.90
10046;DHT22;5063;50.878;4.742;2022-09-09T03:55:45;14.40;99.90
10046;DHT22;5063;50.878;4.742;2022-09-09T03:58:13;14.50;99.90
10046;DHT22;5063;50.878;4.742;2022-09-09T04:00:39;14.50;99.90
10046;DHT22;5063;50.878;4.742;2022-09-09T04:03:09;14.40;99.90
10046;DHT22;5063;50.878;4.742;2022-09-09T04:05:35;14.40;99.90
10046;DHT22;5063;50.878;4.742;2022-09-09T04:08:08;14.30;99.90
10046;DHT22;5063;50.878;4.742;2022-09-09T04:10:34;14.30;99.90
10046;DHT22;5063;50.878;4.742;2022-09-09T04:13:06;14.20;99.90
10046;DHT22;5063;50.878;4.742;2022-09-09T04:15:32;14.30;99.90
10046;DHT22;5063;50.878;4.742;2022-09-09T04:17:58;14.50;99.90
10046;DHT22;5063;50.878;4.742;2022-09-09T04:20:24;14.20;99.90
10046;DHT22;5063;50.878;4.742;2022-09-09T04:22:50;14.20;99.90
10046;DHT22;5063;50.878;4.742;2022-09-09T04:25:15;14.20;99.90
10046;DHT22;5063;50.878;4.742;2022-09-09T04:27:41;14.10;99.90
10046;DHT22;5063;50.878;4.742;2022-09-09T04:30:08;14.20;99.90
10046;DHT22;5063;50.878;4.742;2022-09-09T04:32:34;14.20;99.90
10046;DHT22;5063;50.878;4.742;2022-09-09T04:35:01;14.30;99.90
10046;DHT22;5063;50.878;4.742;2022-09-09T04:37:27;14.30;99.90
10046;DHT22;5063;50.878;4.742;2022-09-09T04:39:54;14.40;99.90
10046;DHT22;5063;50.878;4.742;2022-09-09T04:42:19;14.50;99.90
10046;DHT22;5063;50.878;4.742;2022-09-09T04:44:45;14.50;99.90
10046;DHT22;5063;50.878;4.742;2022-09-09T04:47:11;14.60;99.90
10046;DHT22;5063;50.878;4.742;2022-09-09T04:49:37;14.60;99.90
10046;DHT22;5063;50.878;4.742;2022-09-09T04:52:04;14.50;99.90
10046;DHT22;5063;50.878;4.742;2022-09-09T04:54:29;14.50;99.90
10046;DHT22;5063;50.878;4.742;2022-09-09T04:56:55;14.40;99.90
10046;DHT22;5063;50.878;4.742;2022-09-09T04:59:21;14.40;99.90
10046;DHT22;5063;50.878;4.742;2022-09-09T05:01:48;14.30;99.90
10046;DHT22;5063;50.878;4.742;2022-09-09T05:04:14;14.30;99.90
10046;DHT22;5063;50.878;4.742;2022-09-09T05:06:41;14.20;99.90
10046;DHT22;5063;50.878;4.742;2022-09-09T05:09:08;14.30;99.90
10046;DHT22;5063;50.878;4.742;2022-09-09T05:11:34;14.30;99.90
10046;DHT22;5063;50.878;4.742;2022-09-09T05:14:03;14.20;99.90
10046;DHT22;5063;50.878;4.742;2022-09-09T05:16:30;14.30;99.90
10046;DHT22;5063;50.878;4.742;2022-09-09T05:18:56;14.30;99.90
10046;DHT22;5063;50.878;4.742;2022-09-09T05:21:23;14.30;99.90
10046;DHT22;5063;50.878;4.742;2022-09-09T05:23:50;14.30;99.90
10046;DHT22;5063;50.878;4.742;2022-09-09T05:26:20;14.30;99.90
10046;DHT22;5063;50.878;4.742;2022-09-09T05:28:47;14.30;99.90
10046;DHT22;5063;50.878;4.742;2022-09-09T05:31:14;14.40;99.90
10046;DHT22;5063;50.878;4.742;2022-09-09T05:33:41;14.70;99.90
10046;DHT22;5063;50.878;4.742;2022-09-09T05:36:12;14.60;99.90
10046;DHT22;5063;50.878;4.742;2022-09-09T05:38:42;14.70;99.90
10046;DHT22;5063;50.878;4.742;2022-09-09T05:41:09;14.80;99.90
10046;DHT22;5063;50.878;4.742;2022-09-09T05:43:36;14.80;99.90
10046;DHT22;5063;50.878;4.742;2022-09-09T05:46:11;15.00;99.90
10046;DHT22;5063;50.878;4.742;2022-09-09T05:48:42;15.00;99.90
10046;DHT22;5063;50.878;4.742;2022-09-09T05:51:10;15.00;99.90
10046;DHT22;5063;50.878;4.742;2022-09-09T05:53:38;15.10;99.90
10046;DHT22;5063;50.878;4.742;2022-09-09T05:56:12;15.20;99.90
10046;DHT22;5063;50.878;4.742;2022-09-09T05:58:40;15.40;99.90
10046;DHT22;5063;50.878;4.742;2022-09-09T06:01:11;15.50;99.90
10046;DHT22;5063;50.878;4.742;2022-09-09T06:03:39;15.70;99.90
10046;DHT22;5063;50.878;4.742;2022-09-09T06:06:16;16.00;99.90
10046;DHT22;5063;50.878;4.742;2022-09-09T06:08:44;16.10;99.90
10046;DHT22;5063;50.878;4.742;2022-09-09T06:11:13;16.20;99.90
10046;DHT22;5063;50.878;4.742;2022-09-09T06:13:39;16.30;99.90
10046;DHT22;5063;50.878;4.742;2022-09-09T06:16:10;16.20;99.90
10046;DHT22;5063;50.878;4.742;2022-09-09T06:18:37;16.20;99.90
10046;DHT22;5063;50.878;4.742;2022-09-09T06:21:06;16.10;99.90
10046;DHT22;5063;50.878;4.742;2022-09-09T06:23:33;16.10;99.90
10046;DHT22;5063;50.878;4.742;2022-09-09T06:26:05;16.10;99.90
10046;DHT22;5063;50.878;4.742;2022-09-09T06:28:33;16.10;99.90
10046;DHT22;5063;50.878;4.742;2022-09-09T06:31:14;16.20;99.90
10046;DHT22;5063;50.878;4.742;2022-09-09T06:34:47;16.20;99.90
10046;DHT22;5063;50.878;4.742;2022-09-09T06:38:17;16.20;99.90
10046;DHT22;5063;50.878;4.742;2022-09-09T06:41:53;16.40;99.90
10046;DHT22;5063;50.878;4.742;2022-09-09T06:48:13;16.90;99.90
10046;DHT22;5063;50.878;4.742;2022-09-09T06:51:20;17.20;99.90
10046;DHT22;5063;50.878;4.742;2022-09-09T06:54:26;17.80;99.90
10046;DHT22;5063;50.878;4.742;2022-09-09T06:57:49;18.00;99.90
10046;DHT22;5063;50.878;4.742;2022-09-09T07:04:13;17.80;99.90
10046;DHT22;5063;50.878;4.742;2022-09-09T07:07:40;17.70;99.90
10046;DHT22;5063;50.878;4.742;2022-09-09T07:10:31;17.50;99.90
10046;DHT22;5063;50.878;4.742;2022-09-09T07:13:38;17.40;99.90
10046;DHT22;5063;50.878;4.742;2022-09-09T07:17:00;17.40;99.90
10046;DHT22;5063;50.878;4.742;2022-09-09T07:22:41;17.10;99.90
10046;DHT22;5063;50.878;4.742;2022-09-09T07:25:10;17.00;99.90
10046;DHT22;5063;50.878;4.742;2022-09-09T07:27:39;17.00;99.90
10046;DHT22;5063;50.878;4.742;2022-09-09T07:30:22;17.10;99.90
10046;DHT22;5063;50.878;4.742;2022-09-09T07:33:03;17.00;99.90
10046;DHT22;5063;50.878;4.742;2022-09-09T07:36:20;17.20;99.90
10046;DHT22;5063;50.878;4.742;2022-09-09T07:39:01;17.30;99.90
10046;DHT22;5063;50.878;4.742;2022-09-09T07:41:48;17.40;99.90
10046;DHT22;5063;50.878;4.742;2022-09-09T07:44:21;17.30;99.90
10046;DHT22;5063;50.878;4.742;2022-09-09T07:47:07;17.20;99.90
10046;DHT22;5063;50.878;4.742;2022-09-09T07:49:47;17.20;99.90
10046;DHT22;5063;50.878;4.742;2022-09-09T07:52:15;17.20;99.90
10046;DHT22;5063;50.878;4.742;2022-09-09T07:54:46;17.30;99.90
10046;DHT22;5063;50.878;4.742;2022-09-09T07:57:14;17.20;99.90
10046;DHT22;5063;50.878;4.742;2022-09-09T07:59:41;17.20;99.90
10046;DHT22;5063;50.878;4.742;2022-09-09T08:02:08;17.30;99.90
10046;DHT22;5063;50.878;4.742;2022-09-09T08:04:34;17.60;99.90
10046;DHT22;5063;50.878;4.742;2022-09-09T08:07:01;17.90;99.90
10046;DHT22;5063;50.878;4.742;2022-09-09T08:09:29;18.10;99.90
10046;DHT22;5063;50.878;4.742;2022-09-09T08:11:55;18.20;99.90
10046;DHT22;5063;50.878;4.742;2022-09-09T08:14:22;18.10;99.90
10046;DHT22;5063;50.878;4.742;2022-09-09T08:16:49;18.20;99.90
10046;DHT22;5063;50.878;4.742;2022-09-09T08:19:16;18.30;99.90
10046;DHT22;5063;50.878;4.742;2022-09-09T08:21:43;18.70;99.90
10046;DHT22;5063;50.878;4.742;2022-09-09T08:24:10;18.60;99.90
10046;DHT22;5063;50.878;4.742;2022-09-09T08:26:39;18.60;99.90
10046;DHT22;5063;50.878;4.742;2022-09-09T08:29:07;18.90;99.90
10046;DHT22;5063;50.878;4.742;2022-09-09T08:31:38;19.30;99.90
10046;DHT22;5063;50.878;4.742;2022-09-09T08:34:06;19.20;99.90
10046;DHT22;5063;50.878;4.742;2022-09-09T08:36:44;19.50;99.90
10046;DHT22;5063;50.878;4.742;2022-09-09T08:39:13;19.80;99.90
10046;DHT22;5063;50.878;4.742;2022-09-09T08:45:05;19.80;99.90
10046;DHT22;5063;50.878;4.742;2022-09-09T08:48:10;19.40;99.90
10046;DHT22;5063;50.878;4.742;2022-09-09T08:50:39;19.10;99.90
10046;DHT22;5063;50.878;4.742;2022-09-09T08:56:02;18.70;99.90
10046;DHT22;5063;50.878;4.742;2022-09-09T08:58:33;18.30;99.90
10046;DHT22;5063;50.878;4.742;2022-09-09T09:12:25;17.50;99.90
10046;DHT22;5063;50.878;4.742;2022-09-09T09:14:52;17.60;99.90
10046;DHT22;5063;50.878;4.742;2022-09-09T09:17:24;17.50;99.90
10046;DHT22;5063;50.878;4.742;2022-09-09T09:19:51;17.60;99.90
10046;DHT22;5063;50.878;4.742;2022-09-09T09:22:22;17.60;99.90
10046;DHT22;5063;50.878;4.742;2022-09-09T09:24:59;17.60;99.90
10046;DHT22;5063;50.878;4.742;2022-09-09T09:29:55;18.00;99.90
10046;DHT22;5063;50.878;4.742;2022-09-09T09:32:22;17.90;99.90
10046;DHT22;5063;50.878;4.742;2022-09-09T09:34:56;17.90;99.90
10046;DHT22;5063;50.878;4.742;2022-09-09T09:37:33;17.70;99.90
10046;DHT22;5063;50.878;4.742;2022-09-09T09:40:18;17.70;99.90
10046;DHT22;5063;50.878;4.742;2022-09-09T09:42:58;17.60;99.90
10046;DHT22;5063;50.878;4.742;2022-09-09T09:47:59;17.80;99.90
10046;DHT22;5063;50.878;4.742;2022-09-09T09:50:25;17.80;99.90
10046;DHT22;5063;50.878;4.742;2022-09-09T09:52:56;17.80;99.90
10046;DHT22;5063;50.878;4.742;2022-09-09T09:55:23;17.80;99.90
10046;DHT22;5063;50.878;4.742;2022-09-09T09:57:49;17.80;99.90
10046;DHT22;5063;50.878;4.742;2022-09-09T10:00:18;17.80;99.90
10046;DHT22;5063;50.878;4.742;2022-09-09T10:02:45;18.00;99.90
10046;DHT22;5063;50.878;4.742;2022-09-09T10:05:25;18.10;99.90
10046;DHT22;5063;50.878;4.742;2022-09-09T10:08:21;18.00;99.90
10046;DHT22;5063;50.878;4.742;2022-09-09T10:11:23;18.20;99.90
10046;DHT22;5063;50.878;4.742;2022-09-09T10:16:41;18.40;99.90
10046;DHT22;5063;50.878;4.742;2022-09-09T10:19:16;18.60;99.90
10046;DHT22;5063;50.878;4.742;2022-09-09T10:21:51;18.50;99.90
10046;DHT22;5063;50.878;4.742;2022-09-09T10:32:49;18.30;99.90
10046;DHT22;5063;50.878;4.742;2022-09-09T10:35:52;18.40;99.90
10046;DHT22;5063;50.878;4.742;2022-09-09T10:43:46;18.90;99.90
10046;DHT22;5063;50.878;4.742;2022-09-09T10:46:29;19.10;99.90
10046;DHT22;5063;50.878;4.742;2022-09-09T10:55:02;18.90;99.90
10046;DHT22;5063;50.878;4.742;2022-09-09T10:57:31;18.80;99.90
10046;DHT22;5063;50.878;4.742;2022-09-09T11:02:42;18.40;99.90
10046;DHT22;5063;50.878;4.742;2022-09-09T11:05:26;18.30;99.90
10046;DHT22;5063;50.878;4.742;2022-09-09T11:08:04;18.40;99.90
10046;DHT22;5063;50.878;4.742;2022-09-09T11:11:11;18.60;99.90
10046;DHT22;5063;50.878;4.742;2022-09-09T11:19:33;19.30;99.90
10046;DHT22;5063;50.878;4.742;2022-09-09T11:22:08;19.60;99.90
10046;DHT22;5063;50.878;4.742;2022-09-09T11:24:59;19.80;99.90
10046;DHT22;5063;50.878;4.742;2022-09-09T11:27:31;20.10;99.90
10046;DHT22;5063;50.878;4.742;2022-09-09T11:30:25;19.90;99.90
10046;DHT22;5063;50.878;4.742;2022-09-09T11:40:54;20.90;99.90
10046;DHT22;5063;50.878;4.742;2022-09-09T11:43:25;21.20;99.90
10046;DHT22;5063;50.878;4.742;2022-09-09T11:45:54;21.10;99.90
10046;DHT22;5063;50.878;4.742;2022-09-09T11:48:27;21.50;99.90
10046;DHT22;5063;50.878;4.742;2022-09-09T11:51:11;21.30;99.90
10046;DHT22;5063;50.878;4.742;2022-09-09T11:54:02;20.80;99.90
10046;DHT22;5063;50.878;4.742;2022-09-09T11:56:43;20.70;99.90
10046;DHT22;5063;50.878;4.742;2022-09-09T11:59:30;20.80;99.90
10046;DHT22;5063;50.878;4.742;2022-09-09T12:02:10;20.90;99.90
10046;DHT22;5063;50.878;4.742;2022-09-09T12:04:59;20.80;99.90
10046;DHT22;5063;50.878;4.742;2022-09-09T12:07:33;20.80;99.90
10046;DHT22;5063;50.878;4.742;2022-09-09T12:10:19;20.80;99.90
10046;DHT22;5063;50.878;4.742;2022-09-09T12:12:46;20.90;99.90
10046;DHT22;5063;50.878;4.742;2022-09-09T12:17:46;21.40;99.90
10046;DHT22;5063;50.878;4.742;2022-09-09T12:31:40;21.10;99.90
10046;DHT22;5063;50.878;4.742;2022-09-09T12:37:02;21.10;99.90
10046;DHT22;5063;50.878;4.742;2022-09-09T12:39:29;21.30;99.90
10046;DHT22;5063;50.878;4.742;2022-09-09T12:41:56;21.60;99.90
10046;DHT22;5063;50.878;4.742;2022-09-09T12:44:26;21.70;99.90
10046;DHT22;5063;50.878;4.742;2022-09-09T12:46:54;21.70;99.90
10046;DHT22;5063;50.878;4.742;2022-09-09T12:49:28;21.20;99.90
10046;DHT22;5063;50.878;4.742;2022-09-09T12:51:56;21.30;99.90
10046;DHT22;5063;50.878;4.742;2022-09-09T12:54:22;21.20;99.90
10046;DHT22;5063;50.878;4.742;2022-09-09T12:56:49;21.10;99.90
10046;DHT22;5063;50.878;4.742;2022-09-09T12:59:36;21.30;99.90
10046;DHT22;5063;50.878;4.742;2022-09-09T13:02:02;21.10;99.90
10046;DHT22;5063;50.878;4.742;2022-09-09T13:04:28;21.10;99.90
10046;DHT22;5063;50.878;4.742;2022-09-09T13:06:54;21.30;99.90
10046;DHT22;5063;50.878;4.742;2022-09-09T13:09:30;21.30;99.90
10046;DHT22;5063;50.878;4.742;2022-09-09T13:11:56;21.50;99.90
10046;DHT22;5063;50.878;4.742;2022-09-09T13:14:32;21.70;99.90
10046;DHT22;5063;50.878;4.742;2022-09-09T13:17:01;21.50;99.90
10046;DHT22;5063;50.878;4.742;2022-09-09T13:19:38;21.50;99.90
10046;DHT22;5063;50.878;4.742;2022-09-09T13:22:14;21.80;99.90
10046;DHT22;5063;50.878;4.742;2022-09-09T13:24:40;22.00;99.90
10046;DHT22;5063;50.878;4.742;2022-09-09T13:27:41;21.70;99.90
10046;DHT22;5063;50.878;4.742;2022-09-09T13:35:30;22.00;99.90
10046;DHT22;5063;50.878;4.742;2022-09-09T13:37:58;22.10;99.90
10046;DHT22;5063;50.878;4.742;2022-09-09T13:40:24;22.30;99.90
10046;DHT22;5063;50.878;4.742;2022-09-09T13:42:57;22.40;99.90
10046;DHT22;5063;50.878;4.742;2022-09-09T13:45:25;22.30;99.90
10046;DHT22;5063;50.878;4.742;2022-09-09T13:47:55;22.10;99.90
10046;DHT22;5063;50.878;4.742;2022-09-09T13:50:24;22.00;99.90
10046;DHT22;5063;50.878;4.742;2022-09-09T13:52:54;22.20;99.90
10046;DHT22;5063;50.878;4.742;2022-09-09T13:55:22;22.30;99.90
10046;DHT22;5063;50.878;4.742;2022-09-09T13:58:00;22.30;99.90
10046;DHT22;5063;50.878;4.742;2022-09-09T14:00:28;22.10;99.90
10046;DHT22;5063;50.878;4.742;2022-09-09T14:02:54;22.00;99.90
10046;DHT22;5063;50.878;4.742;2022-09-09T14:05:20;22.00;99.90
10046;DHT22;5063;50.878;4.742;2022-09-09T14:07:48;21.80;99.90
10046;DHT22;5063;50.878;4.742;2022-09-09T14:10:15;21.90;99.90
10046;DHT22;5063;50.878;4.742;2022-09-09T14:12:40;22.10;99.90
10046;DHT22;5063;50.878;4.742;2022-09-09T14:15:09;22.20;99.90
10046;DHT22;5063;50.878;4.742;2022-09-09T14:17:35;22.30;99.90
10046;DHT22;5063;50.878;4.742;2022-09-09T14:20:03;22.20;99.90
10046;DHT22;5063;50.878;4.742;2022-09-09T14:22:33;22.30;99.90
10046;DHT22;5063;50.878;4.742;2022-09-09T14:24:59;22.40;99.90
10046;DHT22;5063;50.878;4.742;2022-09-09T14:27:25;22.30;99.90
10046;DHT22;5063;50.878;4.742;2022-09-09T14:29:52;22.10;99.90
10046;DHT22;5063;50.878;4.742;2022-09-09T14:32:19;22.00;99.90
10046;DHT22;5063;50.878;4.742;2022-09-09T14:34:45;21.90;99.90
10046;DHT22;5063;50.878;4.742;2022-09-09T14:37:10;21.80;99.90
10046;DHT22;5063;50.878;4.742;2022-09-09T14:39:36;21.80;99.90
10046;DHT22;5063;50.878;4.742;2022-09-09T14:42:02;21.70;99.90
10046;DHT22;5063;50.878;4.742;2022-09-09T14:44:28;21.90;99.90
10046;DHT22;5063;50.878;4.742;2022-09-09T14:46:54;21.90;99.90
10046;DHT22;5063;50.878;4.742;2022-09-09T14:49:20;21.90;99.90
10046;DHT22;5063;50.878;4.742;2022-09-09T14:51:45;21.80;99.90
10046;DHT22;5063;50.878;4.742;2022-09-09T14:54:11;21.70;99.90
10046;DHT22;5063;50.878;4.742;2022-09-09T14:56:37;21.70;99.90
10046;DHT22;5063;50.878;4.742;2022-09-09T14:59:03;21.70;99.90
10046;DHT22;5063;50.878;4.742;2022-09-09T15:01:30;21.80;99.90
10046;DHT22;5063;50.878;4.742;2022-09-09T15:04:02;21.90;99.90
10046;DHT22;5063;50.878;4.742;2022-09-09T15:06:30;22.10;99.90
10046;DHT22;5063;50.878;4.742;2022-09-09T15:08:58;22.30;99.90
10046;DHT22;5063;50.878;4.742;2022-09-09T15:11:29;22.30;99.90
10046;DHT22;5063;50.878;4.742;2022-09-09T15:13:56;22.30;99.90
10046;DHT22;5063;50.878;4.742;2022-09-09T15:16:24;22.20;99.90
10046;DHT22;5063;50.878;4.742;2022-09-09T15:18:53;22.30;99.90
10046;DHT22;5063;50.878;4.742;2022-09-09T15:21:21;22.30;99.90
10046;DHT22;5063;50.878;4.742;2022-09-09T15:23:48;22.30;99.90
10046;DHT22;5063;50.878;4.742;2022-09-09T15:26:14;22.30;99.90
10046;DHT22;5063;50.878;4.742;2022-09-09T15:28:41;22.60;99.90
10046;DHT22;5063;50.878;4.742;2022-09-09T15:31:11;22.50;99.90
10046;DHT22;5063;50.878;4.742;2022-09-09T15:33:37;22.30;99.90
10046;DHT22;5063;50.878;4.742;2022-09-09T15:36:36;22.20;99.90
10046;DHT22;5063;50.878;4.742;2022-09-09T15:39:04;21.80;99.90
10046;DHT22;5063;50.878;4.742;2022-09-09T15:41:31;21.60;99.90
10046;DHT22;5063;50.878;4.742;2022-09-09T15:43:57;21.50;99.90
10046;DHT22;5063;50.878;4.742;2022-09-09T15:49:18;22.00;99.90
10046;DHT22;5063;50.878;4.742;2022-09-09T15:51:54;22.30;99.90
10046;DHT22;5063;50.878;4.742;2022-09-09T15:54:21;22.60;99.90
10046;DHT22;5063;50.878;4.742;2022-09-09T15:56:54;22.50;99.90
10046;DHT22;5063;50.878;4.742;2022-09-09T15:59:22;22.30;99.90
10046;DHT22;5063;50.878;4.742;2022-09-09T16:01:48;22.10;99.90
10046;DHT22;5063;50.878;4.742;2022-09-09T16:04:18;22.00;99.90
10046;DHT22;5063;50.878;4.742;2022-09-09T16:06:56;21.80;99.90
10046;DHT22;5063;50.878;4.742;2022-09-09T16:09:25;21.80;99.90
10046;DHT22;5063;50.878;4.742;2022-09-09T16:11:51;21.90;99.90
10046;DHT22;5063;50.878;4.742;2022-09-09T16:14:18;22.10;99.90
10046;DHT22;5063;50.878;4.742;2022-09-09T16:16:44;21.90;99.90
10046;DHT22;5063;50.878;4.742;2022-09-09T16:19:11;21.90;99.90
10046;DHT22;5063;50.878;4.742;2022-09-09T16:21:40;21.90;99.90
10046;DHT22;5063;50.878;4.742;2022-09-09T16:24:08;21.90;99.90
10046;DHT22;5063;50.878;4.742;2022-09-09T16:26:36;21.80;99.90
10046;DHT22;5063;50.878;4.742;2022-09-09T16:29:03;21.60;99.90
10046;DHT22;5063;50.878;4.742;2022-09-09T16:31:30;21.40;99.90
10046;DHT22;5063;50.878;4.742;2022-09-09T16:33:57;21.10;99.90
10046;DHT22;5063;50.878;4.742;2022-09-09T16:36:31;20.80;99.90
10046;DHT22;5063;50.878;4.742;2022-09-09T16:39:01;20.60;99.90
10046;DHT22;5063;50.878;4.742;2022-09-09T16:41:29;20.40;99.90
10046;DHT22;5063;50.878;4.742;2022-09-09T16:43:56;20.20;99.90
10046;DHT22;5063;50.878;4.742;2022-09-09T16:46:22;20.10;99.90
10046;DHT22;5063;50.878;4.742;2022-09-09T16:48:50;20.00;99.90
10046;DHT22;5063;50.878;4.742;2022-09-09T16:51:18;19.90;99.90
10046;DHT22;5063;50.878;4.742;2022-09-09T16:53:44;19.90;99.90
10046;DHT22;5063;50.878;4.742;2022-09-09T16:56:13;19.90;99.90
10046;DHT22;5063;50.878;4.742;2022-09-09T16:58:39;19.90;99.90
10046;DHT22;5063;50.878;4.742;2022-09-09T17:01:05;19.80;99.90
10046;DHT22;5063;50.878;4.742;2022-09-09T17:03:31;19.60;99.90
10046;DHT22;5063;50.878;4.742;2022-09-09T17:05:58;19.40;99.90
10046;DHT22;5063;50.878;4.742;2022-09-09T17:08:31;19.20;99.90
10046;DHT22;5063;50.878;4.742;2022-09-09T17:10:57;19.00;99.90
10046;DHT22;5063;50.878;4.742;2022-09-09T17:13:24;18.90;99.90
10046;DHT22;5063;50.878;4.742;2022-09-09T17:15:50;18.70;99.90
10046;DHT22;5063;50.878;4.742;2022-09-09T17:18:16;18.70;99.90
10046;DHT22;5063;50.878;4.742;2022-09-09T17:21:35;18.70;99.90
10046;DHT22;5063;50.878;4.742;2022-09-09T17:27:39;18.90;99.90
10046;DHT22;5063;50.878;4.742;2022-09-09T17:30:06;18.90;99.90
10046;DHT22;5063;50.878;4.742;2022-09-09T17:32:31;18.90;99.90
10046;DHT22;5063;50.878;4.742;2022-09-09T17:34:57;18.90;99.90
10046;DHT22;5063;50.878;4.742;2022-09-09T17:37:23;18.80;99.90
10046;DHT22;5063;50.878;4.742;2022-09-09T17:39:48;18.70;99.90
10046;DHT22;5063;50.878;4.742;2022-09-09T17:42:15;18.60;99.90
10046;DHT22;5063;50.878;4.742;2022-09-09T17:44:40;18.60;99.90
10046;DHT22;5063;50.878;4.742;2022-09-09T17:47:07;18.50;99.90
10046;DHT22;5063;50.878;4.742;2022-09-09T17:49:33;18.50;99.90
10046;DHT22;5063;50.878;4.742;2022-09-09T17:51:59;18.40;99.90
10046;DHT22;5063;50.878;4.742;2022-09-09T17:54:24;18.20;99.90
10046;DHT22;5063;50.878;4.742;2022-09-09T17:56:50;18.10;99.90
10046;DHT22;5063;50.878;4.742;2022-09-09T17:59:18;17.90;99.90
10046;DHT22;5063;50.878;4.742;2022-09-09T18:01:46;17.70;99.90
10046;DHT22;5063;50.878;4.742;2022-09-09T18:04:14;17.60;99.90
10046;DHT22;5063;50.878;4.742;2022-09-09T18:06:42;17.30;99.90
10046;DHT22;5063;50.878;4.742;2022-09-09T18:09:11;17.20;99.90
10046;DHT22;5063;50.878;4.742;2022-09-09T18:11:48;17.10;99.90
10046;DHT22;5063;50.878;4.742;2022-09-09T18:14:17;16.90;99.90
10046;DHT22;5063;50.878;4.742;2022-09-09T18:16:45;16.90;99.90
10046;DHT22;5063;50.878;4.742;2022-09-09T18:19:13;16.70;99.90
10046;DHT22;5063;50.878;4.742;2022-09-09T18:21:42;16.60;99.90
10046;DHT22;5063;50.878;4.742;2022-09-09T18:24:10;16.50;99.90
10046;DHT22;5063;50.878;4.742;2022-09-09T18:26:36;16.40;99.90
10046;DHT22;5063;50.878;4.742;2022-09-09T18:29:06;16.30;99.90
10046;DHT22;5063;50.878;4.742;2022-09-09T18:31:33;16.30;99.90
10046;DHT22;5063;50.878;4.742;2022-09-09T18:34:01;16.30;99.90
10046;DHT22;5063;50.878;4.742;2022-09-09T18:36:31;16.20;99.90
10046;DHT22;5063;50.878;4.742;2022-09-09T18:38:59;16.20;99.90
10046;DHT22;5063;50.878;4.742;2022-09-09T18:41:28;16.10;99.90
10046;DHT22;5063;50.878;4.742;2022-09-09T18:43:58;16.10;99.90
10046;DHT22;5063;50.878;4.742;2022-09-09T18:46:29;16.10;99.90
10046;DHT22;5063;50.878;4.742;2022-09-09T18:48:56;16.10;99.90
10046;DHT22;5063;50.878;4.742;2022-09-09T18:51:25;16.00;99.90